sensor_id;sensor_type;location;lat;lon;timestamp;temperature;humidity
13960;DHT22;7052;51.050;3.716;2023-02-12T00:01:28;8.50;99.90
13960;DHT22;7052;51.050;3.716;2023-02-12T00:03:55;8.50;99.90
13960;DHT22;7052;51.050;3.716;2023-02-12T00:06:24;8.50;99.90
13960;DHT22;7052;51.050;3.716;2023-02-12T00:08:55;8.50;99.90
13960;DHT22;7052;51.050;3.716;2023-02-12T00:11:26;8.50;99.90
13960;DHT22;7052;51.050;3.716;2023-02-12T00:13:56;8.50;99.90
13960;DHT22;7052;51.050;3.716;2023-02-12T00:16:25;8.50;99.90
13960;DHT22;7052;51.050;3.716;2023-02-12T00:18:55;8.50;99.90
13960;DHT22;7052;51.050;3.716;2023-02-12T00:21:22;8.50;99.90
13960;DHT22;7052;51.050;3.716;2023-02-12T00:23:54;8.50;99.90
13960;DHT22;7052;51.050;3.716;2023-02-12T00:26:22;8.50;99.90
13960;DHT22;7052;51.050;3.716;2023-02-12T00:28:49;8.50;99.90
13960;DHT22;7052;51.050;3.716;2023-02-12T00:31:17;8.50;99.90
13960;DHT22;7052;51.050;3.716;2023-02-12T00:33:48;8.50;99.90
13960;DHT22;7052;51.050;3.716;2023-02-12T00:36:17;8.50;99.90
13960;DHT22;7052;51.050;3.716;2023-02-12T00:38:45;8.50;99.90
13960;DHT22;7052;51.050;3.716;2023-02-12T00:41:13;8.50;99.90
13960;DHT22;7052;51.050;3.716;2023-02-12T00:43:41;8.50;99.90
13960;DHT22;7052;51.050;3.716;2023-02-12T00:46:08;8.50;99.90
13960;DHT22;7052;51.050;3.716;2023-02-12T00:48:35;8.50;99.90
13960;DHT22;7052;51.050;3.716;2023-02-12T00:51:02;8.60;99.90
13960;DHT22;7052;51.050;3.716;2023-02-12T00:53:30;8.50;99.90
13960;DHT22;7052;51.050;3.716;2023-02-12T00:56:00;8.60;99.90
13960;DHT22;7052;51.050;3.716;2023-02-12T00:58:28;8.50;99.90
13960;DHT22;7052;51.050;3.716;2023-02-12T01:01:00;8.50;99.90
13960;DHT22;7052;51.050;3.716;2023-02-12T01:03:26;8.50;99.90
13960;DHT22;7052;51.050;3.716;2023-02-12T01:05:53;8.50;99.90
13960;DHT22;7052;51.050;3.716;2023-02-12T01:08:21;8.50;99.90
13960;DHT22;7052;51.050;3.716;2023-02-12T01:10:56;8.50;99.90
13960;DHT22;7052;51.050;3.716;2023-02-12T01:13:24;8.50;99.90
13960;DHT22;7052;51.050;3.716;2023-02-12T01:16:02;8.50;99.90
13960;DHT22;7052;51.050;3.716;2023-02-12T01:18:31;8.50;99.90
13960;DHT22;7052;51.050;3.716;2023-02-12T01:20:58;8.50;99.90
13960;DHT22;7052;51.050;3.716;2023-02-12T01:23:26;8.50;99.90
13960;DHT22;7052;51.050;3.716;2023-02-12T01:25:54;8.50;99.90
13960;DHT22;7052;51.050;3.716;2023-02-12T01:28:21;8.50;99.90
13960;DHT22;7052;51.050;3.716;2023-02-12T01:30:47;8.50;99.90
13960;DHT22;7052;51.050;3.716;2023-02-12T01:33:16;8.50;99.90
13960;DHT22;7052;51.050;3.716;2023-02-12T01:35:42;8.50;99.90
13960;DHT22;7052;51.050;3.716;2023-02-12T01:38:14;8.50;99.90
13960;DHT22;7052;51.050;3.716;2023-02-12T01:40:40;8.50;99.90
13960;DHT22;7052;51.050;3.716;2023-02-12T01:43:10;8.50;99.90
13960;DHT22;7052;51.050;3.716;2023-02-12T01:45:44;8.50;99.90
13960;DHT22;7052;51.050;3.716;2023-02-12T01:48:12;8.50;99.90
13960;DHT22;7052;51.050;3.716;2023-02-12T01:50:45;8.50;99.90
13960;DHT22;7052;51.050;3.716;2023-02-12T01:53:14;8.50;99.90
13960;DHT22;7052;51.050;3.716;2023-02-12T01:55:50;8.50;99.90
13960;DHT22;7052;51.050;3.716;2023-02-12T01:58:18;8.50;99.90
13960;DHT22;7052;51.050;3.716;2023-02-12T02:00:46;8.50;99.90
13960;DHT22;7052;51.050;3.716;2023-02-12T02:03:13;8.50;99.90
13960;DHT22;7052;51.050;3.716;2023-02-12T02:05:49;8.50;99.90
13960;DHT22;7052;51.050;3.716;2023-02-12T02:08:21;8.50;99.90
13960;DHT22;7052;51.050;3.716;2023-02-12T02:10:48;8.40;99.90
13960;DHT22;7052;51.050;3.716;2023-02-12T02:13:15;8.40;99.90
13960;DHT22;7052;51.050;3.716;2023-02-12T02:16:03;8.40;99.90
13960;DHT22;7052;51.050;3.716;2023-02-12T02:18:36;8.40;99.90
13960;DHT22;7052;51.050;3.716;2023-02-12T02:21:32;8.40;99.90
13960;DHT22;7052;51.050;3.716;2023-02-12T02:24:27;8.40;99.90
13960;DHT22;7052;51.050;3.716;2023-02-12T02:27:15;8.40;99.90
13960;DHT22;7052;51.050;3.716;2023-02-12T02:30:24;8.40;99.90
13960;DHT22;7052;51.050;3.716;2023-02-12T02:33:01;8.40;99.90
13960;DHT22;7052;51.050;3.716;2023-02-12T02:35:39;8.30;99.90
13960;DHT22;7052;51.050;3.716;2023-02-12T02:38:20;8.30;99.90
13960;DHT22;7052;51.050;3.716;2023-02-12T02:40:53;8.40;99.90
13960;DHT22;7052;51.050;3.716;2023-02-12T02:43:25;8.30;99.90
13960;DHT22;7052;51.050;3.716;2023-02-12T02:46:03;8.30;99.90
13960;DHT22;7052;51.050;3.716;2023-02-12T02:48:34;8.30;99.90
13960;DHT22;7052;51.050;3.716;2023-02-12T02:51:04;8.30;99.90
13960;DHT22;7052;51.050;3.716;2023-02-12T02:53:34;8.30;99.90
13960;DHT22;7052;51.050;3.716;2023-02-12T02:56:07;8.30;99.90
13960;DHT22;7052;51.050;3.716;2023-02-12T02:58:41;8.40;99.90
13960;DHT22;7052;51.050;3.716;2023-02-12T03:01:12;8.30;99.90
13960;DHT22;7052;51.050;3.716;2023-02-12T03:03:45;8.30;99.90
13960;DHT22;7052;51.050;3.716;2023-02-12T03:06:17;8.40;99.90
13960;DHT22;7052;51.050;3.716;2023-02-12T03:08:49;8.30;99.90
13960;DHT22;7052;51.050;3.716;2023-02-12T03:11:21;8.30;99.90
13960;DHT22;7052;51.050;3.716;2023-02-12T03:13:54;8.40;99.90
13960;DHT22;7052;51.050;3.716;2023-02-12T03:16:27;8.30;99.90
13960;DHT22;7052;51.050;3.716;2023-02-12T03:19:00;8.20;99.90
13960;DHT22;7052;51.050;3.716;2023-02-12T03:21:32;8.30;99.90
13960;DHT22;7052;51.050;3.716;2023-02-12T03:24:12;8.30;99.90
13960;DHT22;7052;51.050;3.716;2023-02-12T03:26:46;8.30;99.90
13960;DHT22;7052;51.050;3.716;2023-02-12T03:29:15;8.30;99.90
13960;DHT22;7052;51.050;3.716;2023-02-12T03:31:53;8.30;99.90
13960;DHT22;7052;51.050;3.716;2023-02-12T03:34:27;8.30;99.90
13960;DHT22;7052;51.050;3.716;2023-02-12T03:37:01;8.30;99.90
13960;DHT22;7052;51.050;3.716;2023-02-12T03:39:43;8.30;99.90
13960;DHT22;7052;51.050;3.716;2023-02-12T03:42:15;8.30;99.90
13960;DHT22;7052;51.050;3.716;2023-02-12T03:44:51;8.30;99.90
13960;DHT22;7052;51.050;3.716;2023-02-12T03:47:28;8.30;99.90
13960;DHT22;7052;51.050;3.716;2023-02-12T03:50:02;8.30;99.90
13960;DHT22;7052;51.050;3.716;2023-02-12T03:52:33;8.30;99.90
13960;DHT22;7052;51.050;3.716;2023-02-12T03:55:01;8.30;99.90
13960;DHT22;7052;51.050;3.716;2023-02-12T03:57:32;8.30;99.90
13960;DHT22;7052;51.050;3.716;2023-02-12T04:00:03;8.30;99.90
13960;DHT22;7052;51.050;3.716;2023-02-12T04:02:34;8.30;99.90
13960;DHT22;7052;51.050;3.716;2023-02-12T04:05:04;8.30;99.90
13960;DHT22;7052;51.050;3.716;2023-02-12T04:07:32;8.30;99.90
13960;DHT22;7052;51.050;3.716;2023-02-12T04:09:59;8.30;99.90
13960;DHT22;7052;51.050;3.716;2023-02-12T04:12:33;8.30;99.90
13960;DHT22;7052;51.050;3.716;2023-02-12T04:15:28;8.30;99.90
13960;DHT22;7052;51.050;3.716;2023-02-12T04:18:05;8.30;99.90
13960;DHT22;7052;51.050;3.716;2023-02-12T04:20:40;8.30;99.90
13960;DHT22;7052;51.050;3.716;2023-02-12T04:23:15;8.20;99.90
13960;DHT22;7052;51.050;3.716;2023-02-12T04:25:52;8.30;99.90
13960;DHT22;7052;51.050;3.716;2023-02-12T04:28:27;8.20;99.90
13960;DHT22;7052;51.050;3.716;2023-02-12T04:31:00;8.20;99.90
13960;DHT22;7052;51.050;3.716;2023-02-12T04:33:38;8.20;99.90
13960;DHT22;7052;51.050;3.716;2023-02-12T04:36:11;8.20;99.90
13960;DHT22;7052;51.050;3.716;2023-02-12T04:38:42;8.20;99.90
13960;DHT22;7052;51.050;3.716;2023-02-12T04:41:13;8.20;99.90
13960;DHT22;7052;51.050;3.716;2023-02-12T04:43:40;8.20;99.90
13960;DHT22;7052;51.050;3.716;2023-02-12T04:46:07;8.20;99.90
13960;DHT22;7052;51.050;3.716;2023-02-12T04:48:48;8.20;99.90
13960;DHT22;7052;51.050;3.716;2023-02-12T04:51:16;8.20;99.90
13960;DHT22;7052;51.050;3.716;2023-02-12T04:53:43;8.20;99.90
13960;DHT22;7052;51.050;3.716;2023-02-12T04:56:11;8.20;99.90
13960;DHT22;7052;51.050;3.716;2023-02-12T04:58:38;8.20;99.90
13960;DHT22;7052;51.050;3.716;2023-02-12T05:01:06;8.20;99.90
13960;DHT22;7052;51.050;3.716;2023-02-12T05:03:39;8.20;99.90
13960;DHT22;7052;51.050;3.716;2023-02-12T05:06:07;8.20;99.90
13960;DHT22;7052;51.050;3.716;2023-02-12T05:08:37;8.20;99.90
13960;DHT22;7052;51.050;3.716;2023-02-12T05:11:04;8.20;99.90
13960;DHT22;7052;51.050;3.716;2023-02-12T05:13:31;8.10;99.90
13960;DHT22;7052;51.050;3.716;2023-02-12T05:16:03;8.10;99.90
13960;DHT22;7052;51.050;3.716;2023-02-12T05:18:32;8.10;99.90
13960;DHT22;7052;51.050;3.716;2023-02-12T05:21:03;8.10;99.90
13960;DHT22;7052;51.050;3.716;2023-02-12T05:23:33;8.10;99.90
13960;DHT22;7052;51.050;3.716;2023-02-12T05:26:02;8.10;99.90
13960;DHT22;7052;51.050;3.716;2023-02-12T05:28:31;8.10;99.90
13960;DHT22;7052;51.050;3.716;2023-02-12T05:30:59;8.10;99.90
13960;DHT22;7052;51.050;3.716;2023-02-12T05:33:26;8.10;99.90
13960;DHT22;7052;51.050;3.716;2023-02-12T05:35:53;8.10;99.90
13960;DHT22;7052;51.050;3.716;2023-02-12T05:38:24;8.10;99.90
13960;DHT22;7052;51.050;3.716;2023-02-12T05:40:52;8.10;99.90
13960;DHT22;7052;51.050;3.716;2023-02-12T05:43:19;8.10;99.90
13960;DHT22;7052;51.050;3.716;2023-02-12T05:45:46;8.10;99.90
13960;DHT22;7052;51.050;3.716;2023-02-12T05:48:13;8.10;99.90
13960;DHT22;7052;51.050;3.716;2023-02-12T05:50:41;8.10;99.90
13960;DHT22;7052;51.050;3.716;2023-02-12T05:53:08;8.10;99.90
13960;DHT22;7052;51.050;3.716;2023-02-12T05:55:37;8.10;99.90
13960;DHT22;7052;51.050;3.716;2023-02-12T05:58:03;8.10;99.90
13960;DHT22;7052;51.050;3.716;2023-02-12T06:00:31;8.10;99.90
13960;DHT22;7052;51.050;3.716;2023-02-12T06:02:57;8.10;99.90
13960;DHT22;7052;51.050;3.716;2023-02-12T06:05:25;8.00;99.90
13960;DHT22;7052;51.050;3.716;2023-02-12T06:07:51;8.10;99.90
13960;DHT22;7052;51.050;3.716;2023-02-12T06:10:18;8.00;99.90
13960;DHT22;7052;51.050;3.716;2023-02-12T06:12:47;8.00;99.90
13960;DHT22;7052;51.050;3.716;2023-02-12T06:15:14;8.00;99.90
13960;DHT22;7052;51.050;3.716;2023-02-12T06:17:41;8.00;99.90
13960;DHT22;7052;51.050;3.716;2023-02-12T06:20:08;8.00;99.90
13960;DHT22;7052;51.050;3.716;2023-02-12T06:22:35;8.00;99.90
13960;DHT22;7052;51.050;3.716;2023-02-12T06:25:03;8.00;99.90
13960;DHT22;7052;51.050;3.716;2023-02-12T06:27:30;8.00;99.90
13960;DHT22;7052;51.050;3.716;2023-02-12T06:29:58;8.00;99.90
13960;DHT22;7052;51.050;3.716;2023-02-12T06:32:25;8.00;99.90
13960;DHT22;7052;51.050;3.716;2023-02-12T06:34:55;8.00;99.90
13960;DHT22;7052;51.050;3.716;2023-02-12T06:37:22;8.00;99.90
13960;DHT22;7052;51.050;3.716;2023-02-12T06:39:51;8.00;99.90
13960;DHT22;7052;51.050;3.716;2023-02-12T06:42:18;8.00;99.90
13960;DHT22;7052;51.050;3.716;2023-02-12T06:44:45;8.00;99.90
13960;DHT22;7052;51.050;3.716;2023-02-12T06:47:13;8.00;99.90
13960;DHT22;7052;51.050;3.716;2023-02-12T06:49:41;8.00;99.90
13960;DHT22;7052;51.050;3.716;2023-02-12T06:52:08;8.00;99.90
13960;DHT22;7052;51.050;3.716;2023-02-12T06:54:35;8.00;99.90
13960;DHT22;7052;51.050;3.716;2023-02-12T06:57:02;7.90;99.90
13960;DHT22;7052;51.050;3.716;2023-02-12T06:59:30;7.90;99.90
13960;DHT22;7052;51.050;3.716;2023-02-12T07:01:57;8.00;99.90
13960;DHT22;7052;51.050;3.716;2023-02-12T07:04:26;7.90;99.90
13960;DHT22;7052;51.050;3.716;2023-02-12T07:06:53;7.90;99.90
13960;DHT22;7052;51.050;3.716;2023-02-12T07:09:19;7.90;99.90
13960;DHT22;7052;51.050;3.716;2023-02-12T07:11:46;7.90;99.90
13960;DHT22;7052;51.050;3.716;2023-02-12T07:14:15;7.90;99.90
13960;DHT22;7052;51.050;3.716;2023-02-12T07:16:42;7.90;99.90
13960;DHT22;7052;51.050;3.716;2023-02-12T07:19:11;7.90;99.90
13960;DHT22;7052;51.050;3.716;2023-02-12T07:21:40;7.90;99.90
13960;DHT22;7052;51.050;3.716;2023-02-12T07:24:09;7.90;99.90
13960;DHT22;7052;51.050;3.716;2023-02-12T07:26:37;7.90;99.90
13960;DHT22;7052;51.050;3.716;2023-02-12T07:29:04;7.90;99.90
13960;DHT22;7052;51.050;3.716;2023-02-12T07:31:32;7.90;99.90
13960;DHT22;7052;51.050;3.716;2023-02-12T07:34:01;7.90;99.90
13960;DHT22;7052;51.050;3.716;2023-02-12T07:36:31;7.90;99.90
13960;DHT22;7052;51.050;3.716;2023-02-12T07:39:00;7.90;99.90
13960;DHT22;7052;51.050;3.716;2023-02-12T07:41:31;7.90;99.90
13960;DHT22;7052;51.050;3.716;2023-02-12T07:44:00;7.90;99.90
13960;DHT22;7052;51.050;3.716;2023-02-12T07:46:33;7.90;99.90
13960;DHT22;7052;51.050;3.716;2023-02-12T07:49:02;7.90;99.90
13960;DHT22;7052;51.050;3.716;2023-02-12T07:51:30;8.00;99.90
13960;DHT22;7052;51.050;3.716;2023-02-12T07:54:01;8.00;99.90
13960;DHT22;7052;51.050;3.716;2023-02-12T07:56:34;8.00;99.90
13960;DHT22;7052;51.050;3.716;2023-02-12T07:59:04;8.00;99.90
13960;DHT22;7052;51.050;3.716;2023-02-12T08:01:33;8.00;99.90
13960;DHT22;7052;51.050;3.716;2023-02-12T08:04:09;8.00;99.90
13960;DHT22;7052;51.050;3.716;2023-02-12T08:06:41;8.00;99.90
13960;DHT22;7052;51.050;3.716;2023-02-12T08:09:14;8.10;99.90
13960;DHT22;7052;51.050;3.716;2023-02-12T08:11:43;8.10;99.90
13960;DHT22;7052;51.050;3.716;2023-02-12T08:14:12;8.10;99.90
13960;DHT22;7052;51.050;3.716;2023-02-12T08:16:42;8.10;99.90
13960;DHT22;7052;51.050;3.716;2023-02-12T08:19:09;8.10;99.90
13960;DHT22;7052;51.050;3.716;2023-02-12T08:21:36;8.10;99.90
13960;DHT22;7052;51.050;3.716;2023-02-12T08:24:04;8.10;99.90
13960;DHT22;7052;51.050;3.716;2023-02-12T08:26:34;8.10;99.90
13960;DHT22;7052;51.050;3.716;2023-02-12T08:29:03;8.10;99.90
13960;DHT22;7052;51.050;3.716;2023-02-12T08:31:31;8.10;99.90
13960;DHT22;7052;51.050;3.716;2023-02-12T08:33:59;8.10;99.90
13960;DHT22;7052;51.050;3.716;2023-02-12T08:36:28;8.10;99.90
13960;DHT22;7052;51.050;3.716;2023-02-12T08:38:57;8.20;99.90
13960;DHT22;7052;51.050;3.716;2023-02-12T08:41:26;8.20;99.90
13960;DHT22;7052;51.050;3.716;2023-02-12T08:43:57;8.20;99.90
13960;DHT22;7052;51.050;3.716;2023-02-12T08:46:25;8.20;99.90
13960;DHT22;7052;51.050;3.716;2023-02-12T08:48:53;8.20;99.90
13960;DHT22;7052;51.050;3.716;2023-02-12T08:51:22;8.20;99.90
13960;DHT22;7052;51.050;3.716;2023-02-12T08:53:52;8.20;99.90
13960;DHT22;7052;51.050;3.716;2023-02-12T08:56:19;8.20;99.90
13960;DHT22;7052;51.050;3.716;2023-02-12T08:58:48;8.30;99.90
13960;DHT22;7052;51.050;3.716;2023-02-12T09:01:19;8.30;99.90
13960;DHT22;7052;51.050;3.716;2023-02-12T09:03:47;8.40;99.90
13960;DHT22;7052;51.050;3.716;2023-02-12T09:06:15;8.30;99.90
13960;DHT22;7052;51.050;3.716;2023-02-12T09:08:44;8.30;99.90
13960;DHT22;7052;51.050;3.716;2023-02-12T09:11:13;8.40;99.90
13960;DHT22;7052;51.050;3.716;2023-02-12T09:13:43;8.40;99.90
13960;DHT22;7052;51.050;3.716;2023-02-12T09:16:10;8.50;99.90
13960;DHT22;7052;51.050;3.716;2023-02-12T09:18:39;8.50;99.90
13960;DHT22;7052;51.050;3.716;2023-02-12T09:21:08;8.50;99.90
13960;DHT22;7052;51.050;3.716;2023-02-12T09:23:36;8.50;99.90
13960;DHT22;7052;51.050;3.716;2023-02-12T09:26:05;8.60;99.90
13960;DHT22;7052;51.050;3.716;2023-02-12T09:28:35;8.60;99.90
13960;DHT22;7052;51.050;3.716;2023-02-12T09:31:04;8.60;99.90
13960;DHT22;7052;51.050;3.716;2023-02-12T09:33:31;8.60;99.90
13960;DHT22;7052;51.050;3.716;2023-02-12T09:36:02;8.60;99.90
13960;DHT22;7052;51.050;3.716;2023-02-12T09:38:29;8.60;99.90
13960;DHT22;7052;51.050;3.716;2023-02-12T09:41:14;8.70;99.90
13960;DHT22;7052;51.050;3.716;2023-02-12T09:43:51;8.70;99.90
13960;DHT22;7052;51.050;3.716;2023-02-12T09:46:24;8.70;99.90
13960;DHT22;7052;51.050;3.716;2023-02-12T09:48:59;8.70;99.90
13960;DHT22;7052;51.050;3.716;2023-02-12T09:51:35;8.80;99.90
13960;DHT22;7052;51.050;3.716;2023-02-12T09:54:04;8.80;99.90
13960;DHT22;7052;51.050;3.716;2023-02-12T09:56:33;9.00;99.90
13960;DHT22;7052;51.050;3.716;2023-02-12T09:59:05;9.00;99.90
13960;DHT22;7052;51.050;3.716;2023-02-12T10:01:36;9.00;99.90
13960;DHT22;7052;51.050;3.716;2023-02-12T10:04:06;9.00;99.90
13960;DHT22;7052;51.050;3.716;2023-02-12T10:06:49;9.00;99.90
13960;DHT22;7052;51.050;3.716;2023-02-12T10:09:38;9.00;99.90
13960;DHT22;7052;51.050;3.716;2023-02-12T10:12:17;9.10;99.90
13960;DHT22;7052;51.050;3.716;2023-02-12T10:15:12;9.10;99.90
13960;DHT22;7052;51.050;3.716;2023-02-12T10:17:44;9.10;99.90
13960;DHT22;7052;51.050;3.716;2023-02-12T10:26:18;9.20;99.10
13960;DHT22;7052;51.050;3.716;2023-02-12T10:28:48;9.20;99.30
13960;DHT22;7052;51.050;3.716;2023-02-12T10:31:20;9.30;99.00
13960;DHT22;7052;51.050;3.716;2023-02-12T10:33:50;9.20;98.80
13960;DHT22;7052;51.050;3.716;2023-02-12T10:36:30;9.30;98.90
13960;DHT22;7052;51.050;3.716;2023-02-12T10:39:05;9.30;98.80
13960;DHT22;7052;51.050;3.716;2023-02-12T10:41:41;9.40;98.40
13960;DHT22;7052;51.050;3.716;2023-02-12T10:44:11;9.40;98.30
13960;DHT22;7052;51.050;3.716;2023-02-12T10:46:38;9.40;98.10
13960;DHT22;7052;51.050;3.716;2023-02-12T10:49:05;9.40;98.00
13960;DHT22;7052;51.050;3.716;2023-02-12T10:51:47;9.50;97.90
13960;DHT22;7052;51.050;3.716;2023-02-12T10:54:39;9.50;97.90
13960;DHT22;7052;51.050;3.716;2023-02-12T10:57:13;9.50;98.00
13960;DHT22;7052;51.050;3.716;2023-02-12T10:59:42;9.50;97.90
13960;DHT22;7052;51.050;3.716;2023-02-12T11:02:22;9.60;97.80
13960;DHT22;7052;51.050;3.716;2023-02-12T11:04:53;9.60;97.80
13960;DHT22;7052;51.050;3.716;2023-02-12T11:07:21;9.60;97.80
13960;DHT22;7052;51.050;3.716;2023-02-12T11:09:52;9.70;97.80
13960;DHT22;7052;51.050;3.716;2023-02-12T11:12:27;9.70;97.50
13960;DHT22;7052;51.050;3.716;2023-02-12T11:14:57;9.70;97.50
13960;DHT22;7052;51.050;3.716;2023-02-12T11:17:29;9.70;97.60
13960;DHT22;7052;51.050;3.716;2023-02-12T11:20:18;9.70;97.30
13960;DHT22;7052;51.050;3.716;2023-02-12T11:22:50;9.70;97.30
13960;DHT22;7052;51.050;3.716;2023-02-12T11:25:23;9.70;97.40
13960;DHT22;7052;51.050;3.716;2023-02-12T11:28:13;9.70;97.60
13960;DHT22;7052;51.050;3.716;2023-02-12T11:30:52;9.80;97.60
13960;DHT22;7052;51.050;3.716;2023-02-12T11:33:25;9.80;97.30
13960;DHT22;7052;51.050;3.716;2023-02-12T11:35:55;9.80;97.30
13960;DHT22;7052;51.050;3.716;2023-02-12T11:38:29;9.90;97.30
13960;DHT22;7052;51.050;3.716;2023-02-12T11:41:08;9.90;97.00
13960;DHT22;7052;51.050;3.716;2023-02-12T11:43:45;10.00;96.40
13960;DHT22;7052;51.050;3.716;2023-02-12T11:46:18;10.00;96.50
13960;DHT22;7052;51.050;3.716;2023-02-12T11:48:47;10.00;96.50
13960;DHT22;7052;51.050;3.716;2023-02-12T11:51:19;10.10;96.30
13960;DHT22;7052;51.050;3.716;2023-02-12T11:53:49;10.10;95.90
13960;DHT22;7052;51.050;3.716;2023-02-12T11:56:19;10.10;95.70
13960;DHT22;7052;51.050;3.716;2023-02-12T11:58:46;10.10;95.40
13960;DHT22;7052;51.050;3.716;2023-02-12T12:01:18;10.00;95.80
13960;DHT22;7052;51.050;3.716;2023-02-12T12:03:54;10.00;96.10
13960;DHT22;7052;51.050;3.716;2023-02-12T12:06:30;10.00;96.00
13960;DHT22;7052;51.050;3.716;2023-02-12T12:09:06;10.10;96.40
13960;DHT22;7052;51.050;3.716;2023-02-12T12:11:56;10.20;96.10
13960;DHT22;7052;51.050;3.716;2023-02-12T12:14:29;10.30;95.80
13960;DHT22;7052;51.050;3.716;2023-02-12T12:17:02;10.30;95.60
13960;DHT22;7052;51.050;3.716;2023-02-12T12:19:54;10.30;95.40
13960;DHT22;7052;51.050;3.716;2023-02-12T12:22:41;10.20;95.50
13960;DHT22;7052;51.050;3.716;2023-02-12T12:25:17;10.30;95.10
13960;DHT22;7052;51.050;3.716;2023-02-12T12:27:59;10.20;95.50
13960;DHT22;7052;51.050;3.716;2023-02-12T12:30:47;10.20;95.30
13960;DHT22;7052;51.050;3.716;2023-02-12T12:33:24;10.20;95.50
13960;DHT22;7052;51.050;3.716;2023-02-12T12:36:03;10.30;95.20
13960;DHT22;7052;51.050;3.716;2023-02-12T12:38:40;10.30;94.80
13960;DHT22;7052;51.050;3.716;2023-02-12T12:41:21;10.50;94.80
13960;DHT22;7052;51.050;3.716;2023-02-12T12:44:08;10.50;94.10
13960;DHT22;7052;51.050;3.716;2023-02-12T12:46:50;10.50;94.10
13960;DHT22;7052;51.050;3.716;2023-02-12T12:52:25;10.60;93.50
13960;DHT22;7052;51.050;3.716;2023-02-12T12:55:14;10.60;93.10
13960;DHT22;7052;51.050;3.716;2023-02-12T12:57:53;10.50;93.90
13960;DHT22;7052;51.050;3.716;2023-02-12T13:00:47;10.60;94.30
13960;DHT22;7052;51.050;3.716;2023-02-12T13:03:41;10.60;93.30
13960;DHT22;7052;51.050;3.716;2023-02-12T13:06:36;10.60;93.00
13960;DHT22;7052;51.050;3.716;2023-02-12T13:09:20;10.60;93.30
13960;DHT22;7052;51.050;3.716;2023-02-12T13:14:45;10.50;93.40
13960;DHT22;7052;51.050;3.716;2023-02-12T13:17:22;10.60;94.20
13960;DHT22;7052;51.050;3.716;2023-02-12T13:19:59;10.60;94.40
13960;DHT22;7052;51.050;3.716;2023-02-12T13:22:35;10.50;94.10
13960;DHT22;7052;51.050;3.716;2023-02-12T13:25:06;10.60;94.10
13960;DHT22;7052;51.050;3.716;2023-02-12T13:27:44;10.60;94.00
13960;DHT22;7052;51.050;3.716;2023-02-12T13:30:18;10.60;94.30
13960;DHT22;7052;51.050;3.716;2023-02-12T13:33:00;10.60;93.60
13960;DHT22;7052;51.050;3.716;2023-02-12T13:35:30;10.60;93.80
13960;DHT22;7052;51.050;3.716;2023-02-12T13:37:59;10.70;94.10
13960;DHT22;7052;51.050;3.716;2023-02-12T13:40:29;10.70;94.40
13960;DHT22;7052;51.050;3.716;2023-02-12T13:43:01;10.60;94.10
13960;DHT22;7052;51.050;3.716;2023-02-12T13:45:39;10.60;94.10
13960;DHT22;7052;51.050;3.716;2023-02-12T13:48:24;10.60;94.50
13960;DHT22;7052;51.050;3.716;2023-02-12T13:51:03;10.50;94.70
13960;DHT22;7052;51.050;3.716;2023-02-12T13:53:43;10.70;95.00
13960;DHT22;7052;51.050;3.716;2023-02-12T13:56:27;10.60;94.70
13960;DHT22;7052;51.050;3.716;2023-02-12T13:58:56;10.70;94.90
13960;DHT22;7052;51.050;3.716;2023-02-12T14:01:40;10.70;94.80
13960;DHT22;7052;51.050;3.716;2023-02-12T14:04:25;10.70;94.90
13960;DHT22;7052;51.050;3.716;2023-02-12T14:06:56;10.60;94.80
13960;DHT22;7052;51.050;3.716;2023-02-12T14:09:28;10.60;94.70
13960;DHT22;7052;51.050;3.716;2023-02-12T14:11:57;10.60;95.20
13960;DHT22;7052;51.050;3.716;2023-02-12T14:14:27;10.60;95.10
13960;DHT22;7052;51.050;3.716;2023-02-12T14:16:55;10.50;95.10
13960;DHT22;7052;51.050;3.716;2023-02-12T14:19:53;10.50;95.10
13960;DHT22;7052;51.050;3.716;2023-02-12T14:25:46;10.50;94.90
13960;DHT22;7052;51.050;3.716;2023-02-12T14:28:23;10.40;95.50
13960;DHT22;7052;51.050;3.716;2023-02-12T14:31:29;10.30;95.80
13960;DHT22;7052;51.050;3.716;2023-02-12T14:37:33;10.30;96.00
13960;DHT22;7052;51.050;3.716;2023-02-12T14:40:38;10.30;96.10
13960;DHT22;7052;51.050;3.716;2023-02-12T14:43:39;10.30;95.70
13960;DHT22;7052;51.050;3.716;2023-02-12T14:46:45;10.30;96.00
13960;DHT22;7052;51.050;3.716;2023-02-12T14:49:23;10.30;96.10
13960;DHT22;7052;51.050;3.716;2023-02-12T14:51:54;10.20;96.50
13960;DHT22;7052;51.050;3.716;2023-02-12T14:54:29;10.20;96.70
13960;DHT22;7052;51.050;3.716;2023-02-12T14:56:59;10.10;96.70
13960;DHT22;7052;51.050;3.716;2023-02-12T14:59:33;10.20;96.80
13960;DHT22;7052;51.050;3.716;2023-02-12T15:02:04;10.20;96.80
13960;DHT22;7052;51.050;3.716;2023-02-12T15:04:36;10.20;96.50
13960;DHT22;7052;51.050;3.716;2023-02-12T15:07:07;10.20;96.50
13960;DHT22;7052;51.050;3.716;2023-02-12T15:09:41;10.10;96.70
13960;DHT22;7052;51.050;3.716;2023-02-12T15:12:16;10.10;97.10
13960;DHT22;7052;51.050;3.716;2023-02-12T15:14:50;10.10;96.80
13960;DHT22;7052;51.050;3.716;2023-02-12T15:17:24;10.10;97.00
13960;DHT22;7052;51.050;3.716;2023-02-12T15:19:54;10.10;97.00
13960;DHT22;7052;51.050;3.716;2023-02-12T15:22:30;10.00;96.90
13960;DHT22;7052;51.050;3.716;2023-02-12T15:25:19;9.90;97.70
13960;DHT22;7052;51.050;3.716;2023-02-12T15:27:49;9.90;98.00
13960;DHT22;7052;51.050;3.716;2023-02-12T15:30:19;9.90;98.30
13960;DHT22;7052;51.050;3.716;2023-02-12T15:32:46;9.90;98.20
13960;DHT22;7052;51.050;3.716;2023-02-12T15:35:23;9.90;98.30
13960;DHT22;7052;51.050;3.716;2023-02-12T15:37:52;9.80;98.40
13960;DHT22;7052;51.050;3.716;2023-02-12T15:40:30;9.80;98.60
13960;DHT22;7052;51.050;3.716;2023-02-12T15:42:59;9.80;98.70
13960;DHT22;7052;51.050;3.716;2023-02-12T15:45:27;9.70;98.90
13960;DHT22;7052;51.050;3.716;2023-02-12T15:48:00;9.70;98.70
13960;DHT22;7052;51.050;3.716;2023-02-12T15:50:29;9.70;98.90
13960;DHT22;7052;51.050;3.716;2023-02-12T15:52:57;9.70;99.00
13960;DHT22;7052;51.050;3.716;2023-02-12T15:55:27;9.70;98.90
13960;DHT22;7052;51.050;3.716;2023-02-12T15:57:57;9.70;98.90
13960;DHT22;7052;51.050;3.716;2023-02-12T16:00:29;9.70;98.80
13960;DHT22;7052;51.050;3.716;2023-02-12T16:02:59;9.60;98.90
13960;DHT22;7052;51.050;3.716;2023-02-12T16:05:26;9.60;99.20
13960;DHT22;7052;51.050;3.716;2023-02-12T16:07:53;9.50;99.40
13960;DHT22;7052;51.050;3.716;2023-02-12T16:10:22;9.50;99.40
13960;DHT22;7052;51.050;3.716;2023-02-12T16:12:53;9.50;99.40
13960;DHT22;7052;51.050;3.716;2023-02-12T16:15:27;9.50;99.70
13960;DHT22;7052;51.050;3.716;2023-02-12T16:17:57;9.40;99.90
13960;DHT22;7052;51.050;3.716;2023-02-12T16:20:29;9.40;99.90
13960;DHT22;7052;51.050;3.716;2023-02-12T16:23:04;9.40;99.90
13960;DHT22;7052;51.050;3.716;2023-02-12T16:25:32;9.40;99.90
13960;DHT22;7052;51.050;3.716;2023-02-12T16:28:03;9.40;99.90
13960;DHT22;7052;51.050;3.716;2023-02-12T16:30:32;9.40;99.90
13960;DHT22;7052;51.050;3.716;2023-02-12T16:33:00;9.30;99.90
13960;DHT22;7052;51.050;3.716;2023-02-12T16:35:29;9.30;99.90
13960;DHT22;7052;51.050;3.716;2023-02-12T16:38:02;9.30;99.90
13960;DHT22;7052;51.050;3.716;2023-02-12T16:40:34;9.30;99.90
13960;DHT22;7052;51.050;3.716;2023-02-12T16:43:23;9.30;99.90
13960;DHT22;7052;51.050;3.716;2023-02-12T16:46:04;9.20;99.90
13960;DHT22;7052;51.050;3.716;2023-02-12T16:48:37;9.20;99.90
13960;DHT22;7052;51.050;3.716;2023-02-12T16:51:05;9.20;99.90
13960;DHT22;7052;51.050;3.716;2023-02-12T16:53:45;9.20;99.90